PWSweather.com
Personal Weather Stations
Station Observations
BERGSLAGEN
Bergslagen, NoraSE

BergslagenNoraSE

Lat: 59.532278, Lon: 15.016132

Elevation: 492

Station Type: Davis Vantage Pro2 Plus Wireless

http://www.weather.tallasen.se

Latest ConditionsUpdated 10:00:03 AM GMT+01:01 Friday, Feb 22, 2019
Currently Today's Max Today's Min Today's Average
Temperature 26.2°F-3.2°C 26.2°F-3.2°C 23.2°F-4.9°C 24.1°F-4.4°C
Dew Point 18.4°F-7.6°C 20.7°F-6.3°C 18.2°F-7.7°C 19.4°F-7.0°C
Winds Calm Calm Calm -Calm - - Calm Calm
Wind Gusts 2.0 mph3.2 kmh 2.0 mph3.2 kmh - -
Humidity 72% 86% 72% 82%
Pressure 30.76 in1041.7 mb 30.76 in1041.7 mb 30.54 in1034.2 mb -
Hour Temp Dew Point Humidity Winds Wind Gusts Pressure Precip Precip Rate Daily Precip Total
10:00 AM 26.2°F-3.2°C 18.4°F-7.6°C 72% Calm Calm 2.0 mph3.2 kmh 30.76 in1041.7 mb 0.00 in0.0 mm 0.00 in0.0 mm 0.00 in0.0 mm
09:45 AM 25.2°F-3.8°C 18.3°F-7.6°C 75% Calm Calm 2.0 mph3.2 kmh 30.76 in1041.7 mb 0.00 in0.0 mm 0.00 in0.0 mm 0.00 in0.0 mm
09:30 AM 24.6°F-4.1°C 18.7°F-7.4°C 78% Calm Calm 1.0 mph1.6 kmh 30.75 in1041.3 mb 0.00 in0.0 mm 0.00 in0.0 mm 0.00 in0.0 mm
09:15 AM 24.6°F-4.1°C 18.7°F-7.4°C 78% Calm Calm 1.0 mph1.6 kmh 30.75 in1041.3 mb 0.00 in0.0 mm 0.00 in0.0 mm 0.00 in0.0 mm
09:00 AM 24.3°F-4.3°C 19.0°F-7.2°C 80% Calm Calm -- 30.74 in1041.0 mb 0.00 in0.0 mm 0.00 in0.0 mm 0.00 in0.0 mm
08:45 AM 23.7°F-4.6°C 18.7°F-7.4°C 81% Calm Calm 1.0 mph1.6 kmh 30.74 in1041.0 mb 0.00 in0.0 mm 0.00 in0.0 mm 0.00 in0.0 mm
08:30 AM 23.5°F-4.7°C 18.6°F-7.4°C 81% Calm Calm 1.0 mph1.6 kmh 30.74 in1041.0 mb 0.00 in0.0 mm 0.00 in0.0 mm 0.00 in0.0 mm
08:15 AM 23.4°F-4.8°C 18.4°F-7.6°C 81% Calm Calm 2.0 mph3.2 kmh 30.73 in1040.6 mb 0.00 in0.0 mm 0.00 in0.0 mm 0.00 in0.0 mm
08:00 AM 23.2°F-4.9°C 18.2°F-7.7°C 81% Calm Calm 2.0 mph3.2 kmh 30.73 in1040.6 mb 0.00 in0.0 mm 0.00 in0.0 mm 0.00 in0.0 mm
07:45 AM 23.2°F-4.9°C 18.5°F-7.5°C 82% Calm Calm 2.0 mph3.2 kmh 30.73 in1040.6 mb 0.00 in0.0 mm 0.00 in0.0 mm 0.00 in0.0 mm
07:30 AM 23.2°F-4.9°C 18.5°F-7.5°C 82% Calm Calm -- 30.72 in1040.3 mb 0.00 in0.0 mm 0.00 in0.0 mm 0.00 in0.0 mm
07:15 AM 23.2°F-4.9°C 18.5°F-7.5°C 82% Calm Calm 1.0 mph1.6 kmh 30.71 in1040.0 mb 0.00 in0.0 mm 0.00 in0.0 mm 0.00 in0.0 mm
07:00 AM 23.5°F-4.7°C 18.9°F-7.3°C 82% Calm Calm 1.0 mph1.6 kmh 30.71 in1040.0 mb 0.00 in0.0 mm 0.00 in0.0 mm 0.00 in0.0 mm
06:45 AM 23.7°F-4.6°C 19.0°F-7.2°C 82% Calm Calm 2.0 mph3.2 kmh 30.70 in1039.6 mb 0.00 in0.0 mm 0.00 in0.0 mm 0.00 in0.0 mm
06:30 AM 23.7°F-4.6°C 19.0°F-7.2°C 82% Calm Calm 1.0 mph1.6 kmh 30.70 in1039.6 mb 0.00 in0.0 mm 0.00 in0.0 mm 0.00 in0.0 mm
06:15 AM 23.7°F-4.6°C 19.0°F-7.2°C 82% Calm Calm 1.0 mph1.6 kmh 30.70 in1039.6 mb 0.00 in0.0 mm 0.00 in0.0 mm 0.00 in0.0 mm
06:00 AM 23.7°F-4.6°C 19.3°F-7.1°C 83% Calm Calm 1.0 mph1.6 kmh 30.69 in1039.3 mb 0.00 in0.0 mm 0.00 in0.0 mm 0.00 in0.0 mm
05:45 AM 23.7°F-4.6°C 19.3°F-7.1°C 83% Calm Calm -- 30.68 in1038.9 mb 0.00 in0.0 mm 0.00 in0.0 mm 0.00 in0.0 mm
05:30 AM 23.7°F-4.6°C 19.3°F-7.1°C 83% Calm Calm -- 30.68 in1038.9 mb 0.00 in0.0 mm 0.00 in0.0 mm 0.00 in0.0 mm
05:15 AM 23.7°F-4.6°C 19.0°F-7.2°C 82% Calm Calm 1.0 mph1.6 kmh 30.67 in1038.6 mb 0.00 in0.0 mm 0.00 in0.0 mm 0.00 in0.0 mm
05:00 AM 24.1°F-4.4°C 19.7°F-6.8°C 83% Calm Calm -- 30.67 in1038.6 mb 0.00 in0.0 mm 0.00 in0.0 mm 0.00 in0.0 mm
04:45 AM 24.1°F-4.4°C 19.7°F-6.8°C 83% Calm Calm -- 30.66 in1038.3 mb 0.00 in0.0 mm 0.00 in0.0 mm 0.00 in0.0 mm
04:30 AM 24.1°F-4.4°C 19.7°F-6.8°C 83% Calm Calm -- 30.66 in1038.3 mb 0.00 in0.0 mm 0.00 in0.0 mm 0.00 in0.0 mm
04:15 AM 24.1°F-4.4°C 19.7°F-6.8°C 83% Calm Calm 1.0 mph1.6 kmh 30.65 in1037.9 mb 0.00 in0.0 mm 0.00 in0.0 mm 0.00 in0.0 mm
04:00 AM 24.1°F-4.4°C 19.7°F-6.8°C 83% Calm Calm 1.0 mph1.6 kmh 30.65 in1037.9 mb 0.00 in0.0 mm 0.00 in0.0 mm 0.00 in0.0 mm
03:45 AM 24.1°F-4.4°C 19.7°F-6.8°C 83% Calm Calm -- 30.63 in1037.3 mb 0.00 in0.0 mm 0.00 in0.0 mm 0.00 in0.0 mm
03:30 AM 24.1°F-4.4°C 19.7°F-6.8°C 83% Calm Calm 1.0 mph1.6 kmh 30.63 in1037.3 mb 0.00 in0.0 mm 0.00 in0.0 mm 0.00 in0.0 mm
03:15 AM 24.1°F-4.4°C 19.7°F-6.8°C 83% Calm Calm -- 30.62 in1036.9 mb 0.00 in0.0 mm 0.00 in0.0 mm 0.00 in0.0 mm
03:00 AM 24.3°F-4.3°C 19.8°F-6.8°C 83% Calm Calm 1.0 mph1.6 kmh 30.61 in1036.6 mb 0.00 in0.0 mm 0.00 in0.0 mm 0.00 in0.0 mm
02:45 AM 24.3°F-4.3°C 19.8°F-6.8°C 83% Calm Calm 1.0 mph1.6 kmh 30.61 in1036.6 mb 0.00 in0.0 mm 0.00 in0.0 mm 0.00 in0.0 mm
02:30 AM 24.3°F-4.3°C 19.8°F-6.8°C 83% Calm Calm -- 30.60 in1036.2 mb 0.00 in0.0 mm 0.00 in0.0 mm 0.00 in0.0 mm
02:15 AM 24.4°F-4.2°C 20.0°F-6.7°C 83% Calm Calm 2.0 mph3.2 kmh 30.60 in1036.2 mb 0.00 in0.0 mm 0.00 in0.0 mm 0.00 in0.0 mm
02:00 AM 24.4°F-4.2°C 20.0°F-6.7°C 83% Calm Calm 2.0 mph3.2 kmh 30.59 in1035.9 mb 0.00 in0.0 mm 0.00 in0.0 mm 0.00 in0.0 mm
01:45 AM 24.4°F-4.2°C 20.3°F-6.5°C 84% Calm Calm 1.0 mph1.6 kmh 30.59 in1035.9 mb 0.00 in0.0 mm 0.00 in0.0 mm 0.00 in0.0 mm
01:30 AM 24.4°F-4.2°C 20.3°F-6.5°C 84% Calm Calm 1.0 mph1.6 kmh 30.58 in1035.6 mb 0.00 in0.0 mm 0.00 in0.0 mm 0.00 in0.0 mm
01:15 AM 24.4°F-4.2°C 20.6°F-6.3°C 85% Calm Calm 1.0 mph1.6 kmh 30.58 in1035.6 mb 0.00 in0.0 mm 0.00 in0.0 mm 0.00 in0.0 mm
01:00 AM 24.3°F-4.3°C 20.4°F-6.4°C 85% Calm Calm 1.0 mph1.6 kmh 30.57 in1035.2 mb 0.00 in0.0 mm 0.00 in0.0 mm 0.00 in0.0 mm
12:45 AM 24.3°F-4.3°C 20.4°F-6.4°C 85% Calm Calm -- 30.57 in1035.2 mb 0.00 in0.0 mm 0.00 in0.0 mm 0.00 in0.0 mm
12:30 AM 24.3°F-4.3°C 20.4°F-6.4°C 85% Calm Calm 1.0 mph1.6 kmh 30.55 in1034.5 mb 0.00 in0.0 mm 0.00 in0.0 mm 0.00 in0.0 mm
12:15 AM 24.3°F-4.3°C 20.7°F-6.3°C 86% Calm Calm 2.0 mph3.2 kmh 30.55 in1034.5 mb 0.00 in0.0 mm 0.00 in0.0 mm 0.00 in0.0 mm
12:00 AM 24.3°F-4.3°C 20.7°F-6.3°C 86% Calm Calm 2.0 mph3.2 kmh 30.54 in1034.2 mb 0.00 in0.0 mm 0.00 in0.0 mm 0.00 in0.0 mm